sensor_id;sensor_type;location;lat;lon;timestamp;temperature;humidity
28520;DHT22;15732;48.534;20.382;2024-02-28T00:00:39;9.70;99.90
28520;DHT22;15732;48.534;20.382;2024-02-28T00:03:06;9.70;99.90
28520;DHT22;15732;48.534;20.382;2024-02-28T00:05:38;9.70;99.90
28520;DHT22;15732;48.534;20.382;2024-02-28T00:08:09;9.60;99.90
28520;DHT22;15732;48.534;20.382;2024-02-28T00:10:40;9.60;99.90
28520;DHT22;15732;48.534;20.382;2024-02-28T00:13:07;9.60;99.90
28520;DHT22;15732;48.534;20.382;2024-02-28T00:15:34;9.60;99.90
28520;DHT22;15732;48.534;20.382;2024-02-28T00:18:06;9.60;99.90
28520;DHT22;15732;48.534;20.382;2024-02-28T00:20:33;9.50;99.90
28520;DHT22;15732;48.534;20.382;2024-02-28T00:23:00;9.50;99.90
28520;DHT22;15732;48.534;20.382;2024-02-28T00:25:32;9.40;99.90
28520;DHT22;15732;48.534;20.382;2024-02-28T00:28:04;9.40;99.90
28520;DHT22;15732;48.534;20.382;2024-02-28T00:30:35;9.40;99.90
28520;DHT22;15732;48.534;20.382;2024-02-28T00:33:03;9.40;99.90
28520;DHT22;15732;48.534;20.382;2024-02-28T00:35:32;9.30;99.90
28520;DHT22;15732;48.534;20.382;2024-02-28T00:38:00;9.30;99.90
28520;DHT22;15732;48.534;20.382;2024-02-28T00:40:27;9.30;99.90
28520;DHT22;15732;48.534;20.382;2024-02-28T00:42:55;9.10;99.90
28520;DHT22;15732;48.534;20.382;2024-02-28T00:45:22;9.10;99.90
28520;DHT22;15732;48.534;20.382;2024-02-28T00:47:49;9.00;99.90
28520;DHT22;15732;48.534;20.382;2024-02-28T00:50:16;9.10;99.90
28520;DHT22;15732;48.534;20.382;2024-02-28T00:52:44;9.20;99.90
28520;DHT22;15732;48.534;20.382;2024-02-28T00:55:11;9.20;99.90
28520;DHT22;15732;48.534;20.382;2024-02-28T00:57:38;9.20;99.90
28520;DHT22;15732;48.534;20.382;2024-02-28T01:00:07;9.30;99.90
28520;DHT22;15732;48.534;20.382;2024-02-28T01:02:36;9.20;99.90
28520;DHT22;15732;48.534;20.382;2024-02-28T01:05:04;9.30;99.90
28520;DHT22;15732;48.534;20.382;2024-02-28T01:07:30;9.30;99.90
28520;DHT22;15732;48.534;20.382;2024-02-28T01:09:58;9.20;99.90
28520;DHT22;15732;48.534;20.382;2024-02-28T01:12:25;9.20;99.90
28520;DHT22;15732;48.534;20.382;2024-02-28T01:14:52;9.20;99.90
28520;DHT22;15732;48.534;20.382;2024-02-28T01:17:20;9.10;99.90
28520;DHT22;15732;48.534;20.382;2024-02-28T01:19:51;9.00;99.90
28520;DHT22;15732;48.534;20.382;2024-02-28T01:22:18;9.00;99.90
28520;DHT22;15732;48.534;20.382;2024-02-28T01:24:49;8.90;99.90
28520;DHT22;15732;48.534;20.382;2024-02-28T01:27:16;8.90;99.90
28520;DHT22;15732;48.534;20.382;2024-02-28T01:29:47;8.90;99.90
28520;DHT22;15732;48.534;20.382;2024-02-28T01:32:18;8.90;99.90
28520;DHT22;15732;48.534;20.382;2024-02-28T01:34:49;8.90;99.90
28520;DHT22;15732;48.534;20.382;2024-02-28T01:37:20;8.90;99.90
28520;DHT22;15732;48.534;20.382;2024-02-28T01:39:52;8.90;99.90
28520;DHT22;15732;48.534;20.382;2024-02-28T01:42:23;8.90;99.90
28520;DHT22;15732;48.534;20.382;2024-02-28T01:44:50;8.90;99.90
28520;DHT22;15732;48.534;20.382;2024-02-28T01:47:21;8.90;99.90
28520;DHT22;15732;48.534;20.382;2024-02-28T01:49:48;8.80;99.90
28520;DHT22;15732;48.534;20.382;2024-02-28T01:52:20;8.80;99.90
28520;DHT22;15732;48.534;20.382;2024-02-28T01:54:52;8.80;99.90
28520;DHT22;15732;48.534;20.382;2024-02-28T01:57:19;8.70;99.90
28520;DHT22;15732;48.534;20.382;2024-02-28T01:59:50;8.70;99.90
28520;DHT22;15732;48.534;20.382;2024-02-28T02:02:24;8.60;99.90
28520;DHT22;15732;48.534;20.382;2024-02-28T02:04:51;8.50;99.90
28520;DHT22;15732;48.534;20.382;2024-02-28T02:07:23;8.50;99.90
28520;DHT22;15732;48.534;20.382;2024-02-28T02:09:52;8.50;99.90
28520;DHT22;15732;48.534;20.382;2024-02-28T02:12:19;8.60;99.90
28520;DHT22;15732;48.534;20.382;2024-02-28T02:14:50;8.60;99.90
28520;DHT22;15732;48.534;20.382;2024-02-28T02:17:21;8.60;99.90
28520;DHT22;15732;48.534;20.382;2024-02-28T02:19:49;8.50;99.90
28520;DHT22;15732;48.534;20.382;2024-02-28T02:22:17;8.50;99.90
28520;DHT22;15732;48.534;20.382;2024-02-28T02:24:44;8.50;99.90
28520;DHT22;15732;48.534;20.382;2024-02-28T02:27:15;8.60;99.90
28520;DHT22;15732;48.534;20.382;2024-02-28T02:29:42;8.60;99.90
28520;DHT22;15732;48.534;20.382;2024-02-28T02:32:14;8.60;99.90
28520;DHT22;15732;48.534;20.382;2024-02-28T02:34:41;8.60;99.90
28520;DHT22;15732;48.534;20.382;2024-02-28T02:37:09;8.70;99.90
28520;DHT22;15732;48.534;20.382;2024-02-28T02:39:36;8.70;99.90
28520;DHT22;15732;48.534;20.382;2024-02-28T02:42:03;8.60;99.90
28520;DHT22;15732;48.534;20.382;2024-02-28T02:44:31;8.60;99.90
28520;DHT22;15732;48.534;20.382;2024-02-28T02:46:58;8.60;99.90
28520;DHT22;15732;48.534;20.382;2024-02-28T02:49:30;8.60;99.90
28520;DHT22;15732;48.534;20.382;2024-02-28T02:52:01;8.60;99.90
28520;DHT22;15732;48.534;20.382;2024-02-28T02:54:28;8.60;99.90
28520;DHT22;15732;48.534;20.382;2024-02-28T02:56:55;8.60;99.90
28520;DHT22;15732;48.534;20.382;2024-02-28T02:59:23;8.60;99.90
28520;DHT22;15732;48.534;20.382;2024-02-28T03:01:50;8.60;99.90
28520;DHT22;15732;48.534;20.382;2024-02-28T03:04:17;8.60;99.90
28520;DHT22;15732;48.534;20.382;2024-02-28T03:06:48;8.60;99.90
28520;DHT22;15732;48.534;20.382;2024-02-28T03:09:19;8.50;99.90
28520;DHT22;15732;48.534;20.382;2024-02-28T03:11:46;8.50;99.90
28520;DHT22;15732;48.534;20.382;2024-02-28T03:14:13;8.50;99.90
28520;DHT22;15732;48.534;20.382;2024-02-28T03:16:43;8.50;99.90
28520;DHT22;15732;48.534;20.382;2024-02-28T03:19:14;8.60;99.90
28520;DHT22;15732;48.534;20.382;2024-02-28T03:21:45;8.60;99.90
28520;DHT22;15732;48.534;20.382;2024-02-28T03:24:16;8.60;99.90
28520;DHT22;15732;48.534;20.382;2024-02-28T03:26:47;8.70;99.90
28520;DHT22;15732;48.534;20.382;2024-02-28T03:29:14;8.70;99.90
28520;DHT22;15732;48.534;20.382;2024-02-28T03:31:45;8.60;99.90
28520;DHT22;15732;48.534;20.382;2024-02-28T03:34:17;8.60;99.90
28520;DHT22;15732;48.534;20.382;2024-02-28T03:36:44;8.60;99.90
28520;DHT22;15732;48.534;20.382;2024-02-28T03:39:11;8.50;99.90
28520;DHT22;15732;48.534;20.382;2024-02-28T03:41:42;8.50;99.90
28520;DHT22;15732;48.534;20.382;2024-02-28T03:44:09;8.50;99.90
28520;DHT22;15732;48.534;20.382;2024-02-28T03:46:37;8.60;99.90
28520;DHT22;15732;48.534;20.382;2024-02-28T03:49:05;8.50;99.90
28520;DHT22;15732;48.534;20.382;2024-02-28T03:51:31;8.50;99.90
28520;DHT22;15732;48.534;20.382;2024-02-28T03:54:03;8.50;99.90
28520;DHT22;15732;48.534;20.382;2024-02-28T03:56:35;8.50;99.90
28520;DHT22;15732;48.534;20.382;2024-02-28T03:59:01;8.60;99.90
28520;DHT22;15732;48.534;20.382;2024-02-28T04:01:30;8.60;99.90
28520;DHT22;15732;48.534;20.382;2024-02-28T04:03:57;8.60;99.90
28520;DHT22;15732;48.534;20.382;2024-02-28T04:06:24;8.60;99.90
28520;DHT22;15732;48.534;20.382;2024-02-28T04:08:51;8.60;99.90
28520;DHT22;15732;48.534;20.382;2024-02-28T04:11:22;8.60;99.90
28520;DHT22;15732;48.534;20.382;2024-02-28T04:13:50;8.60;99.90
28520;DHT22;15732;48.534;20.382;2024-02-28T04:16:17;8.60;99.90
28520;DHT22;15732;48.534;20.382;2024-02-28T04:18:44;8.50;99.90
28520;DHT22;15732;48.534;20.382;2024-02-28T04:21:11;8.50;99.90
28520;DHT22;15732;48.534;20.382;2024-02-28T04:23:39;8.50;99.90
28520;DHT22;15732;48.534;20.382;2024-02-28T04:26:08;8.50;99.90
28520;DHT22;15732;48.534;20.382;2024-02-28T04:28:40;8.60;99.90
28520;DHT22;15732;48.534;20.382;2024-02-28T04:31:08;8.50;99.90
28520;DHT22;15732;48.534;20.382;2024-02-28T04:33:36;8.50;99.90
28520;DHT22;15732;48.534;20.382;2024-02-28T04:36:03;8.50;99.90
28520;DHT22;15732;48.534;20.382;2024-02-28T04:38:31;8.50;99.90
28520;DHT22;15732;48.534;20.382;2024-02-28T04:40:59;8.50;99.90
28520;DHT22;15732;48.534;20.382;2024-02-28T04:43:26;8.40;99.90
28520;DHT22;15732;48.534;20.382;2024-02-28T04:45:57;8.40;99.90
28520;DHT22;15732;48.534;20.382;2024-02-28T04:48:28;8.40;99.90
28520;DHT22;15732;48.534;20.382;2024-02-28T04:51:01;8.40;99.90
28520;DHT22;15732;48.534;20.382;2024-02-28T04:53:29;8.40;99.90
28520;DHT22;15732;48.534;20.382;2024-02-28T04:56:00;8.40;99.90
28520;DHT22;15732;48.534;20.382;2024-02-28T04:58:27;8.40;99.90
28520;DHT22;15732;48.534;20.382;2024-02-28T05:00:55;8.30;99.90
28520;DHT22;15732;48.534;20.382;2024-02-28T05:03:22;8.30;99.90
28520;DHT22;15732;48.534;20.382;2024-02-28T05:05:51;8.20;99.90
28520;DHT22;15732;48.534;20.382;2024-02-28T05:08:38;8.30;99.90
28520;DHT22;15732;48.534;20.382;2024-02-28T05:11:04;8.30;99.90
28520;DHT22;15732;48.534;20.382;2024-02-28T05:13:36;8.30;99.90
28520;DHT22;15732;48.534;20.382;2024-02-28T05:16:03;8.30;99.90
28520;DHT22;15732;48.534;20.382;2024-02-28T05:18:30;8.40;99.90
28520;DHT22;15732;48.534;20.382;2024-02-28T05:20:58;8.40;99.90
28520;DHT22;15732;48.534;20.382;2024-02-28T05:23:27;8.50;99.90
28520;DHT22;15732;48.534;20.382;2024-02-28T05:25:59;8.60;99.90
28520;DHT22;15732;48.534;20.382;2024-02-28T05:28:31;8.60;99.90
28520;DHT22;15732;48.534;20.382;2024-02-28T05:33:46;8.50;99.90
28520;DHT22;15732;48.534;20.382;2024-02-28T05:36:13;8.60;99.90
28520;DHT22;15732;48.534;20.382;2024-02-28T05:38:44;8.60;99.90
28520;DHT22;15732;48.534;20.382;2024-02-28T05:41:12;8.60;99.90
28520;DHT22;15732;48.534;20.382;2024-02-28T05:43:40;8.60;99.90
28520;DHT22;15732;48.534;20.382;2024-02-28T05:46:07;8.70;99.90
28520;DHT22;15732;48.534;20.382;2024-02-28T05:48:38;8.70;99.90
28520;DHT22;15732;48.534;20.382;2024-02-28T05:51:06;8.70;99.90
28520;DHT22;15732;48.534;20.382;2024-02-28T05:53:33;8.70;99.90
28520;DHT22;15732;48.534;20.382;2024-02-28T05:56:04;8.80;99.90
28520;DHT22;15732;48.534;20.382;2024-02-28T05:58:31;8.60;99.90
28520;DHT22;15732;48.534;20.382;2024-02-28T06:00:58;8.60;99.90
28520;DHT22;15732;48.534;20.382;2024-02-28T06:03:25;8.60;99.90
28520;DHT22;15732;48.534;20.382;2024-02-28T06:05:52;8.50;99.90
28520;DHT22;15732;48.534;20.382;2024-02-28T06:08:21;8.50;99.90
28520;DHT22;15732;48.534;20.382;2024-02-28T06:10:48;8.50;99.90
28520;DHT22;15732;48.534;20.382;2024-02-28T06:13:16;8.60;99.90
28520;DHT22;15732;48.534;20.382;2024-02-28T06:15:47;8.60;99.90
28520;DHT22;15732;48.534;20.382;2024-02-28T06:18:15;8.60;99.90
28520;DHT22;15732;48.534;20.382;2024-02-28T06:20:42;8.50;99.90
28520;DHT22;15732;48.534;20.382;2024-02-28T06:23:09;8.50;99.90
28520;DHT22;15732;48.534;20.382;2024-02-28T06:25:37;8.50;99.90
28520;DHT22;15732;48.534;20.382;2024-02-28T06:28:05;8.50;99.90
28520;DHT22;15732;48.534;20.382;2024-02-28T06:30:33;8.60;99.90
28520;DHT22;15732;48.534;20.382;2024-02-28T06:33:01;8.50;99.90
28520;DHT22;15732;48.534;20.382;2024-02-28T06:35:32;8.60;99.90
28520;DHT22;15732;48.534;20.382;2024-02-28T06:38:03;8.70;99.90
28520;DHT22;15732;48.534;20.382;2024-02-28T06:40:31;8.70;99.90
28520;DHT22;15732;48.534;20.382;2024-02-28T06:42:58;8.70;99.90
28520;DHT22;15732;48.534;20.382;2024-02-28T06:45:29;8.70;99.90
28520;DHT22;15732;48.534;20.382;2024-02-28T06:48:00;8.80;99.90
28520;DHT22;15732;48.534;20.382;2024-02-28T06:50:32;8.80;99.90
28520;DHT22;15732;48.534;20.382;2024-02-28T06:52:59;8.80;99.90
28520;DHT22;15732;48.534;20.382;2024-02-28T06:55:30;8.80;99.90
28520;DHT22;15732;48.534;20.382;2024-02-28T06:57:58;8.90;99.90
28520;DHT22;15732;48.534;20.382;2024-02-28T07:00:25;9.00;99.90
28520;DHT22;15732;48.534;20.382;2024-02-28T07:02:52;8.90;99.90
28520;DHT22;15732;48.534;20.382;2024-02-28T07:05:21;9.00;99.90
28520;DHT22;15732;48.534;20.382;2024-02-28T07:07:48;9.00;99.90
28520;DHT22;15732;48.534;20.382;2024-02-28T07:10:15;9.00;99.90
28520;DHT22;15732;48.534;20.382;2024-02-28T07:12:47;9.00;99.90
28520;DHT22;15732;48.534;20.382;2024-02-28T07:15:14;9.00;99.90
28520;DHT22;15732;48.534;20.382;2024-02-28T07:17:41;9.10;99.90
28520;DHT22;15732;48.534;20.382;2024-02-28T07:20:10;9.10;99.90
28520;DHT22;15732;48.534;20.382;2024-02-28T07:22:37;9.10;99.90
28520;DHT22;15732;48.534;20.382;2024-02-28T07:25:06;9.10;99.90
28520;DHT22;15732;48.534;20.382;2024-02-28T07:27:34;9.20;99.90
28520;DHT22;15732;48.534;20.382;2024-02-28T07:30:02;9.10;99.90
28520;DHT22;15732;48.534;20.382;2024-02-28T07:32:36;9.10;99.90
28520;DHT22;15732;48.534;20.382;2024-02-28T07:35:04;9.20;99.90
28520;DHT22;15732;48.534;20.382;2024-02-28T07:37:30;9.20;99.90
28520;DHT22;15732;48.534;20.382;2024-02-28T07:40:02;9.20;99.90
28520;DHT22;15732;48.534;20.382;2024-02-28T07:42:30;9.30;99.90
28520;DHT22;15732;48.534;20.382;2024-02-28T07:44:58;9.30;99.90
28520;DHT22;15732;48.534;20.382;2024-02-28T07:47:29;9.40;99.90
28520;DHT22;15732;48.534;20.382;2024-02-28T07:49:56;9.40;99.90
28520;DHT22;15732;48.534;20.382;2024-02-28T07:52:27;9.40;99.90
28520;DHT22;15732;48.534;20.382;2024-02-28T07:54:57;9.40;99.90
28520;DHT22;15732;48.534;20.382;2024-02-28T07:57:25;9.40;99.90
28520;DHT22;15732;48.534;20.382;2024-02-28T07:59:56;9.50;99.90
28520;DHT22;15732;48.534;20.382;2024-02-28T08:02:24;9.50;99.90
28520;DHT22;15732;48.534;20.382;2024-02-28T08:04:51;9.60;99.90
28520;DHT22;15732;48.534;20.382;2024-02-28T08:07:19;9.60;99.90
28520;DHT22;15732;48.534;20.382;2024-02-28T08:09:50;9.60;99.90
28520;DHT22;15732;48.534;20.382;2024-02-28T08:12:21;9.70;99.90
28520;DHT22;15732;48.534;20.382;2024-02-28T08:14:52;9.70;99.90
28520;DHT22;15732;48.534;20.382;2024-02-28T08:17:19;9.70;99.90
28520;DHT22;15732;48.534;20.382;2024-02-28T08:19:46;9.80;99.90
28520;DHT22;15732;48.534;20.382;2024-02-28T08:22:18;9.80;99.90
28520;DHT22;15732;48.534;20.382;2024-02-28T08:24:46;9.80;99.90
28520;DHT22;15732;48.534;20.382;2024-02-28T08:27:17;9.90;99.90
28520;DHT22;15732;48.534;20.382;2024-02-28T08:29:49;9.90;99.90
28520;DHT22;15732;48.534;20.382;2024-02-28T08:32:21;9.90;99.90
28520;DHT22;15732;48.534;20.382;2024-02-28T08:34:48;10.00;99.90
28520;DHT22;15732;48.534;20.382;2024-02-28T08:37:19;10.00;99.90
28520;DHT22;15732;48.534;20.382;2024-02-28T08:39:51;10.00;99.90
28520;DHT22;15732;48.534;20.382;2024-02-28T08:42:18;10.10;99.90
28520;DHT22;15732;48.534;20.382;2024-02-28T08:44:45;10.10;99.90
28520;DHT22;15732;48.534;20.382;2024-02-28T08:47:14;10.20;99.90
28520;DHT22;15732;48.534;20.382;2024-02-28T08:49:46;10.20;99.90
28520;DHT22;15732;48.534;20.382;2024-02-28T08:52:13;10.30;99.90
28520;DHT22;15732;48.534;20.382;2024-02-28T08:54:44;10.30;99.90
28520;DHT22;15732;48.534;20.382;2024-02-28T08:57:11;10.30;99.90
28520;DHT22;15732;48.534;20.382;2024-02-28T08:59:39;10.30;99.90
28520;DHT22;15732;48.534;20.382;2024-02-28T09:02:09;10.40;99.90
28520;DHT22;15732;48.534;20.382;2024-02-28T09:04:38;10.40;99.90
28520;DHT22;15732;48.534;20.382;2024-02-28T09:07:04;10.50;99.90
28520;DHT22;15732;48.534;20.382;2024-02-28T09:09:35;10.50;99.90
28520;DHT22;15732;48.534;20.382;2024-02-28T09:12:07;10.50;99.90
28520;DHT22;15732;48.534;20.382;2024-02-28T09:14:39;10.50;99.90
28520;DHT22;15732;48.534;20.382;2024-02-28T09:17:06;10.60;99.90
28520;DHT22;15732;48.534;20.382;2024-02-28T09:19:33;10.60;99.90
28520;DHT22;15732;48.534;20.382;2024-02-28T09:22:04;10.60;99.90
28520;DHT22;15732;48.534;20.382;2024-02-28T09:24:37;10.70;99.90
28520;DHT22;15732;48.534;20.382;2024-02-28T09:27:05;10.80;99.90
28520;DHT22;15732;48.534;20.382;2024-02-28T09:29:32;10.80;99.90
28520;DHT22;15732;48.534;20.382;2024-02-28T09:32:05;10.90;99.90
28520;DHT22;15732;48.534;20.382;2024-02-28T09:34:33;11.00;99.90
28520;DHT22;15732;48.534;20.382;2024-02-28T09:37:00;11.00;99.90
28520;DHT22;15732;48.534;20.382;2024-02-28T09:39:27;11.10;99.90
28520;DHT22;15732;48.534;20.382;2024-02-28T09:41:55;11.10;99.90
28520;DHT22;15732;48.534;20.382;2024-02-28T09:44:23;11.20;99.90
28520;DHT22;15732;48.534;20.382;2024-02-28T09:46:54;11.20;99.90
28520;DHT22;15732;48.534;20.382;2024-02-28T09:49:22;11.30;99.90
28520;DHT22;15732;48.534;20.382;2024-02-28T09:51:57;11.40;99.90
28520;DHT22;15732;48.534;20.382;2024-02-28T09:54:25;11.40;99.90
28520;DHT22;15732;48.534;20.382;2024-02-28T09:56:55;11.50;99.90
28520;DHT22;15732;48.534;20.382;2024-02-28T09:59:24;11.50;99.90
28520;DHT22;15732;48.534;20.382;2024-02-28T10:02:00;11.60;99.90
28520;DHT22;15732;48.534;20.382;2024-02-28T10:04:38;11.60;99.90
28520;DHT22;15732;48.534;20.382;2024-02-28T10:07:12;11.70;99.90
28520;DHT22;15732;48.534;20.382;2024-02-28T10:09:43;11.80;99.90
28520;DHT22;15732;48.534;20.382;2024-02-28T10:12:15;11.80;99.90
28520;DHT22;15732;48.534;20.382;2024-02-28T10:14:50;11.90;99.90
28520;DHT22;15732;48.534;20.382;2024-02-28T10:17:18;11.90;99.90
28520;DHT22;15732;48.534;20.382;2024-02-28T10:19:45;12.00;99.90
28520;DHT22;15732;48.534;20.382;2024-02-28T10:22:12;12.00;99.90
28520;DHT22;15732;48.534;20.382;2024-02-28T10:24:39;12.10;99.90
28520;DHT22;15732;48.534;20.382;2024-02-28T10:27:07;12.10;99.90
28520;DHT22;15732;48.534;20.382;2024-02-28T10:29:34;12.10;99.90
28520;DHT22;15732;48.534;20.382;2024-02-28T10:32:02;12.20;99.90
28520;DHT22;15732;48.534;20.382;2024-02-28T10:34:32;12.20;99.90
28520;DHT22;15732;48.534;20.382;2024-02-28T10:37:01;12.30;99.90
28520;DHT22;15732;48.534;20.382;2024-02-28T10:39:30;12.30;99.90
28520;DHT22;15732;48.534;20.382;2024-02-28T10:41:59;12.30;99.90
28520;DHT22;15732;48.534;20.382;2024-02-28T10:44:27;12.40;99.90
28520;DHT22;15732;48.534;20.382;2024-02-28T10:47:00;12.40;99.90
28520;DHT22;15732;48.534;20.382;2024-02-28T10:49:28;12.50;99.90
28520;DHT22;15732;48.534;20.382;2024-02-28T10:51:56;12.50;99.90
28520;DHT22;15732;48.534;20.382;2024-02-28T10:54:28;12.50;99.90
28520;DHT22;15732;48.534;20.382;2024-02-28T10:56:56;12.60;99.90
28520;DHT22;15732;48.534;20.382;2024-02-28T10:59:23;12.60;99.90
28520;DHT22;15732;48.534;20.382;2024-02-28T11:01:56;12.70;99.90
28520;DHT22;15732;48.534;20.382;2024-02-28T11:04:23;12.70;99.90
28520;DHT22;15732;48.534;20.382;2024-02-28T11:06:55;12.80;99.90
28520;DHT22;15732;48.534;20.382;2024-02-28T11:09:25;12.80;99.90
28520;DHT22;15732;48.534;20.382;2024-02-28T11:11:56;12.90;99.90
28520;DHT22;15732;48.534;20.382;2024-02-28T11:14:23;12.90;99.90
28520;DHT22;15732;48.534;20.382;2024-02-28T11:17:05;12.90;99.90
28520;DHT22;15732;48.534;20.382;2024-02-28T11:19:32;12.90;99.90
28520;DHT22;15732;48.534;20.382;2024-02-28T11:22:06;13.00;99.90
28520;DHT22;15732;48.534;20.382;2024-02-28T11:24:35;13.00;99.90
28520;DHT22;15732;48.534;20.382;2024-02-28T11:27:07;13.10;99.90
28520;DHT22;15732;48.534;20.382;2024-02-28T11:29:34;13.10;99.90
28520;DHT22;15732;48.534;20.382;2024-02-28T11:32:00;13.10;99.90
28520;DHT22;15732;48.534;20.382;2024-02-28T11:34:31;13.20;99.90
28520;DHT22;15732;48.534;20.382;2024-02-28T11:36:59;13.20;99.90
28520;DHT22;15732;48.534;20.382;2024-02-28T11:39:31;13.20;99.90
28520;DHT22;15732;48.534;20.382;2024-02-28T11:42:15;13.20;99.90
28520;DHT22;15732;48.534;20.382;2024-02-28T11:44:53;13.30;99.90
28520;DHT22;15732;48.534;20.382;2024-02-28T11:47:22;13.30;99.90
28520;DHT22;15732;48.534;20.382;2024-02-28T11:49:50;13.30;99.90
28520;DHT22;15732;48.534;20.382;2024-02-28T11:52:21;13.30;99.90
28520;DHT22;15732;48.534;20.382;2024-02-28T11:54:48;13.40;99.90
28520;DHT22;15732;48.534;20.382;2024-02-28T11:57:17;13.40;99.90
28520;DHT22;15732;48.534;20.382;2024-02-28T11:59:44;13.40;99.90
28520;DHT22;15732;48.534;20.382;2024-02-28T12:02:15;13.40;99.90
28520;DHT22;15732;48.534;20.382;2024-02-28T12:04:47;13.40;99.90
28520;DHT22;15732;48.534;20.382;2024-02-28T12:07:16;13.40;99.90
28520;DHT22;15732;48.534;20.382;2024-02-28T12:09:44;13.50;99.90
28520;DHT22;15732;48.534;20.382;2024-02-28T12:12:12;13.50;99.90
28520;DHT22;15732;48.534;20.382;2024-02-28T12:14:43;13.50;99.90
28520;DHT22;15732;48.534;20.382;2024-02-28T12:17:11;13.50;99.90
28520;DHT22;15732;48.534;20.382;2024-02-28T12:19:42;13.50;99.90
28520;DHT22;15732;48.534;20.382;2024-02-28T12:22:12;13.50;99.90
28520;DHT22;15732;48.534;20.382;2024-02-28T12:24:43;13.50;99.90
28520;DHT22;15732;48.534;20.382;2024-02-28T12:27:14;13.50;99.90
28520;DHT22;15732;48.534;20.382;2024-02-28T12:29:41;13.50;99.90
28520;DHT22;15732;48.534;20.382;2024-02-28T12:32:09;13.50;99.90
28520;DHT22;15732;48.534;20.382;2024-02-28T12:34:36;13.50;99.90
28520;DHT22;15732;48.534;20.382;2024-02-28T12:37:04;13.50;99.90
28520;DHT22;15732;48.534;20.382;2024-02-28T12:39:36;13.50;99.90
28520;DHT22;15732;48.534;20.382;2024-02-28T12:42:04;13.60;99.90
28520;DHT22;15732;48.534;20.382;2024-02-28T12:44:35;13.60;99.90
28520;DHT22;15732;48.534;20.382;2024-02-28T12:47:02;13.70;99.90
28520;DHT22;15732;48.534;20.382;2024-02-28T12:49:34;13.70;99.90
28520;DHT22;15732;48.534;20.382;2024-02-28T12:52:01;13.70;99.90
28520;DHT22;15732;48.534;20.382;2024-02-28T12:54:29;13.80;99.90
28520;DHT22;15732;48.534;20.382;2024-02-28T12:57:00;13.80;99.90
28520;DHT22;15732;48.534;20.382;2024-02-28T12:59:30;13.90;99.90
28520;DHT22;15732;48.534;20.382;2024-02-28T13:01:57;13.90;99.90
28520;DHT22;15732;48.534;20.382;2024-02-28T13:04:28;14.00;99.90
28520;DHT22;15732;48.534;20.382;2024-02-28T13:07:00;14.00;99.90
28520;DHT22;15732;48.534;20.382;2024-02-28T13:09:26;14.00;99.90
28520;DHT22;15732;48.534;20.382;2024-02-28T13:11:57;14.00;99.90
28520;DHT22;15732;48.534;20.382;2024-02-28T13:14:29;14.00;99.90
28520;DHT22;15732;48.534;20.382;2024-02-28T13:16:56;14.00;99.90
28520;DHT22;15732;48.534;20.382;2024-02-28T13:19:27;14.00;99.90
28520;DHT22;15732;48.534;20.382;2024-02-28T13:21:59;14.00;99.90
28520;DHT22;15732;48.534;20.382;2024-02-28T13:24:30;14.00;99.90
28520;DHT22;15732;48.534;20.382;2024-02-28T13:26:57;14.00;99.90
28520;DHT22;15732;48.534;20.382;2024-02-28T13:29:24;14.00;99.90
28520;DHT22;15732;48.534;20.382;2024-02-28T13:31:52;14.00;99.90
28520;DHT22;15732;48.534;20.382;2024-02-28T13:34:23;14.00;99.90
28520;DHT22;15732;48.534;20.382;2024-02-28T13:36:50;14.00;99.90
28520;DHT22;15732;48.534;20.382;2024-02-28T13:39:20;14.00;99.90
28520;DHT22;15732;48.534;20.382;2024-02-28T13:41:50;14.00;99.90
28520;DHT22;15732;48.534;20.382;2024-02-28T13:44:18;14.00;99.90
28520;DHT22;15732;48.534;20.382;2024-02-28T13:46:50;14.00;99.90
28520;DHT22;15732;48.534;20.382;2024-02-28T13:49:22;14.00;99.90
28520;DHT22;15732;48.534;20.382;2024-02-28T13:51:49;13.90;99.90
28520;DHT22;15732;48.534;20.382;2024-02-28T13:54:17;13.90;99.90
28520;DHT22;15732;48.534;20.382;2024-02-28T13:56:45;13.90;99.90
28520;DHT22;15732;48.534;20.382;2024-02-28T13:59:17;13.90;99.90
28520;DHT22;15732;48.534;20.382;2024-02-28T14:01:44;14.00;99.90
28520;DHT22;15732;48.534;20.382;2024-02-28T14:04:15;14.00;99.90
28520;DHT22;15732;48.534;20.382;2024-02-28T14:06:48;13.90;99.90
28520;DHT22;15732;48.534;20.382;2024-02-28T14:09:16;13.90;99.90
28520;DHT22;15732;48.534;20.382;2024-02-28T14:11:43;14.00;99.90
28520;DHT22;15732;48.534;20.382;2024-02-28T14:14:14;13.90;99.90
28520;DHT22;15732;48.534;20.382;2024-02-28T14:16:42;13.90;99.90
28520;DHT22;15732;48.534;20.382;2024-02-28T14:19:09;13.90;99.90
28520;DHT22;15732;48.534;20.382;2024-02-28T14:21:37;13.90;99.90
28520;DHT22;15732;48.534;20.382;2024-02-28T14:24:05;13.90;99.90
28520;DHT22;15732;48.534;20.382;2024-02-28T14:26:32;13.90;99.90
28520;DHT22;15732;48.534;20.382;2024-02-28T14:28:59;13.90;99.90
28520;DHT22;15732;48.534;20.382;2024-02-28T14:31:26;13.90;99.90
28520;DHT22;15732;48.534;20.382;2024-02-28T14:33:54;13.90;99.90
28520;DHT22;15732;48.534;20.382;2024-02-28T14:36:21;13.90;99.90
28520;DHT22;15732;48.534;20.382;2024-02-28T14:38:48;13.90;99.90
28520;DHT22;15732;48.534;20.382;2024-02-28T14:41:20;13.90;99.90
28520;DHT22;15732;48.534;20.382;2024-02-28T14:43:48;13.90;99.90
28520;DHT22;15732;48.534;20.382;2024-02-28T14:46:15;13.90;99.90
28520;DHT22;15732;48.534;20.382;2024-02-28T14:48:48;13.90;99.90
28520;DHT22;15732;48.534;20.382;2024-02-28T14:51:21;13.90;99.90
28520;DHT22;15732;48.534;20.382;2024-02-28T14:53:48;13.90;99.90
28520;DHT22;15732;48.534;20.382;2024-02-28T14:56:16;13.90;99.90
28520;DHT22;15732;48.534;20.382;2024-02-28T14:58:43;13.90;99.90
28520;DHT22;15732;48.534;20.382;2024-02-28T15:01:10;13.90;99.90
28520;DHT22;15732;48.534;20.382;2024-02-28T15:03:42;13.90;99.90
28520;DHT22;15732;48.534;20.382;2024-02-28T15:06:09;13.90;99.90
28520;DHT22;15732;48.534;20.382;2024-02-28T15:08:36;13.90;99.90
28520;DHT22;15732;48.534;20.382;2024-02-28T15:11:04;13.90;99.90
28520;DHT22;15732;48.534;20.382;2024-02-28T15:13:35;13.90;99.90
28520;DHT22;15732;48.534;20.382;2024-02-28T15:16:02;13.90;99.90
28520;DHT22;15732;48.534;20.382;2024-02-28T15:18:30;13.90;99.90
28520;DHT22;15732;48.534;20.382;2024-02-28T15:21:02;13.90;99.90
28520;DHT22;15732;48.534;20.382;2024-02-28T15:23:30;13.90;99.90
28520;DHT22;15732;48.534;20.382;2024-02-28T15:26:01;13.90;99.90
28520;DHT22;15732;48.534;20.382;2024-02-28T15:28:28;13.90;99.90
28520;DHT22;15732;48.534;20.382;2024-02-28T15:31:00;13.90;99.90
28520;DHT22;15732;48.534;20.382;2024-02-28T15:33:31;13.90;99.90
28520;DHT22;15732;48.534;20.382;2024-02-28T15:36:02;13.90;99.90
28520;DHT22;15732;48.534;20.382;2024-02-28T15:38:30;13.80;99.90